sensor_id;sensor_type;location;lat;lon;timestamp;P1;durP1;ratioP1;P2;durP2;ratioP2
11735;SDS011;5924;51.398;7.088;2023-11-21T00:01:53;38.33;;;16.93;;
11735;SDS011;5924;51.398;7.088;2023-11-21T00:04:19;38.53;;;17.13;;
11735;SDS011;5924;51.398;7.088;2023-11-21T00:06:46;36.27;;;19.87;;
11735;SDS011;5924;51.398;7.088;2023-11-21T00:09:12;27.27;;;16.60;;
11735;SDS011;5924;51.398;7.088;2023-11-21T00:11:40;25.70;;;15.43;;
11735;SDS011;5924;51.398;7.088;2023-11-21T00:14:06;34.43;;;16.33;;
11735;SDS011;5924;51.398;7.088;2023-11-21T00:16:33;23.20;;;13.73;;
11735;SDS011;5924;51.398;7.088;2023-11-21T00:18:59;16.70;;;12.00;;
11735;SDS011;5924;51.398;7.088;2023-11-21T00:21:24;13.73;;;10.50;;
11735;SDS011;5924;51.398;7.088;2023-11-21T00:23:50;28.27;;;12.77;;
11735;SDS011;5924;51.398;7.088;2023-11-21T00:26:16;26.60;;;13.30;;
11735;SDS011;5924;51.398;7.088;2023-11-21T00:28:42;34.00;;;14.17;;
11735;SDS011;5924;51.398;7.088;2023-11-21T00:31:07;16.53;;;11.90;;
11735;SDS011;5924;51.398;7.088;2023-11-21T00:33:33;39.40;;;16.43;;
11735;SDS011;5924;51.398;7.088;2023-11-21T00:35:59;40.20;;;16.93;;
11735;SDS011;5924;51.398;7.088;2023-11-21T00:38:25;35.73;;;16.40;;
11735;SDS011;5924;51.398;7.088;2023-11-21T00:40:52;45.53;;;16.93;;
11735;SDS011;5924;51.398;7.088;2023-11-21T00:43:21;36.93;;;16.23;;
11735;SDS011;5924;51.398;7.088;2023-11-21T00:45:49;34.80;;;15.93;;
11735;SDS011;5924;51.398;7.088;2023-11-21T00:48:16;27.70;;;13.00;;
11735;SDS011;5924;51.398;7.088;2023-11-21T00:50:42;23.57;;;13.70;;
11735;SDS011;5924;51.398;7.088;2023-11-21T00:53:08;27.10;;;11.53;;
11735;SDS011;5924;51.398;7.088;2023-11-21T00:55:34;21.20;;;10.37;;
11735;SDS011;5924;51.398;7.088;2023-11-21T00:58:00;15.73;;;10.33;;
11735;SDS011;5924;51.398;7.088;2023-11-21T01:00:29;12.77;;;8.93;;
11735;SDS011;5924;51.398;7.088;2023-11-21T01:02:54;16.60;;;10.43;;
11735;SDS011;5924;51.398;7.088;2023-11-21T01:05:20;14.20;;;8.90;;
11735;SDS011;5924;51.398;7.088;2023-11-21T01:07:46;10.77;;;8.83;;
11735;SDS011;5924;51.398;7.088;2023-11-21T01:10:12;10.87;;;8.20;;
11735;SDS011;5924;51.398;7.088;2023-11-21T01:12:38;20.47;;;10.90;;
11735;SDS011;5924;51.398;7.088;2023-11-21T01:15:07;34.17;;;12.00;;
11735;SDS011;5924;51.398;7.088;2023-11-21T01:17:33;17.17;;;11.13;;
11735;SDS011;5924;51.398;7.088;2023-11-21T01:20:02;27.00;;;12.50;;
11735;SDS011;5924;51.398;7.088;2023-11-21T01:22:31;34.20;;;15.67;;
11735;SDS011;5924;51.398;7.088;2023-11-21T01:24:56;23.43;;;13.00;;
11735;SDS011;5924;51.398;7.088;2023-11-21T01:27:23;19.03;;;12.37;;
11735;SDS011;5924;51.398;7.088;2023-11-21T01:29:48;34.17;;;14.43;;
11735;SDS011;5924;51.398;7.088;2023-11-21T01:32:14;36.70;;;15.67;;
11735;SDS011;5924;51.398;7.088;2023-11-21T01:34:39;21.73;;;12.50;;
11735;SDS011;5924;51.398;7.088;2023-11-21T01:37:05;26.13;;;13.57;;
11735;SDS011;5924;51.398;7.088;2023-11-21T01:39:31;21.57;;;11.90;;
11735;SDS011;5924;51.398;7.088;2023-11-21T01:41:57;15.70;;;10.53;;
11735;SDS011;5924;51.398;7.088;2023-11-21T01:44:26;18.13;;;10.60;;
11735;SDS011;5924;51.398;7.088;2023-11-21T01:46:52;21.63;;;12.30;;
11735;SDS011;5924;51.398;7.088;2023-11-21T01:49:18;20.83;;;11.00;;
11735;SDS011;5924;51.398;7.088;2023-11-21T01:51:46;18.93;;;10.30;;
11735;SDS011;5924;51.398;7.088;2023-11-21T01:54:15;28.77;;;12.50;;
11735;SDS011;5924;51.398;7.088;2023-11-21T01:56:42;28.77;;;13.10;;
11735;SDS011;5924;51.398;7.088;2023-11-21T01:59:10;19.07;;;10.70;;
11735;SDS011;5924;51.398;7.088;2023-11-21T02:01:39;26.33;;;12.73;;
11735;SDS011;5924;51.398;7.088;2023-11-21T02:04:04;24.50;;;12.10;;
11735;SDS011;5924;51.398;7.088;2023-11-21T02:06:30;21.70;;;12.53;;
11735;SDS011;5924;51.398;7.088;2023-11-21T02:08:56;22.60;;;11.20;;
11735;SDS011;5924;51.398;7.088;2023-11-21T02:11:22;15.87;;;10.53;;
11735;SDS011;5924;51.398;7.088;2023-11-21T02:13:47;23.63;;;12.03;;
11735;SDS011;5924;51.398;7.088;2023-11-21T02:16:15;17.77;;;11.27;;
11735;SDS011;5924;51.398;7.088;2023-11-21T02:18:40;27.87;;;12.10;;
11735;SDS011;5924;51.398;7.088;2023-11-21T02:21:07;29.07;;;12.10;;
11735;SDS011;5924;51.398;7.088;2023-11-21T02:23:33;27.33;;;11.87;;
11735;SDS011;5924;51.398;7.088;2023-11-21T02:25:58;28.20;;;11.20;;
11735;SDS011;5924;51.398;7.088;2023-11-21T02:28:24;17.20;;;10.90;;
11735;SDS011;5924;51.398;7.088;2023-11-21T02:30:52;24.67;;;11.97;;
11735;SDS011;5924;51.398;7.088;2023-11-21T02:33:22;26.70;;;10.90;;
11735;SDS011;5924;51.398;7.088;2023-11-21T02:35:48;30.60;;;12.03;;
11735;SDS011;5924;51.398;7.088;2023-11-21T02:38:14;36.63;;;12.43;;
11735;SDS011;5924;51.398;7.088;2023-11-21T02:40:40;29.57;;;11.40;;
11735;SDS011;5924;51.398;7.088;2023-11-21T02:43:07;23.67;;;11.00;;
11735;SDS011;5924;51.398;7.088;2023-11-21T02:45:32;26.23;;;10.90;;
11735;SDS011;5924;51.398;7.088;2023-11-21T02:47:58;22.70;;;11.60;;
11735;SDS011;5924;51.398;7.088;2023-11-21T02:50:24;13.20;;;9.07;;
11735;SDS011;5924;51.398;7.088;2023-11-21T02:52:49;15.67;;;10.47;;
11735;SDS011;5924;51.398;7.088;2023-11-21T02:55:16;21.40;;;11.20;;
11735;SDS011;5924;51.398;7.088;2023-11-21T02:57:41;17.60;;;10.23;;
11735;SDS011;5924;51.398;7.088;2023-11-21T03:00:07;12.73;;;8.70;;
11735;SDS011;5924;51.398;7.088;2023-11-21T03:02:35;12.87;;;8.60;;
11735;SDS011;5924;51.398;7.088;2023-11-21T03:05:05;12.97;;;7.80;;
11735;SDS011;5924;51.398;7.088;2023-11-21T03:07:31;27.70;;;11.17;;
11735;SDS011;5924;51.398;7.088;2023-11-21T03:09:57;18.30;;;9.00;;
11735;SDS011;5924;51.398;7.088;2023-11-21T03:12:22;19.33;;;9.13;;
11735;SDS011;5924;51.398;7.088;2023-11-21T03:14:48;19.60;;;10.63;;
11735;SDS011;5924;51.398;7.088;2023-11-21T03:17:13;20.43;;;9.17;;
11735;SDS011;5924;51.398;7.088;2023-11-21T03:19:43;27.73;;;10.00;;
11735;SDS011;5924;51.398;7.088;2023-11-21T03:22:09;15.80;;;9.23;;
11735;SDS011;5924;51.398;7.088;2023-11-21T03:24:35;20.13;;;10.40;;
11735;SDS011;5924;51.398;7.088;2023-11-21T03:27:01;17.30;;;9.67;;
11735;SDS011;5924;51.398;7.088;2023-11-21T03:29:26;24.77;;;11.00;;
11735;SDS011;5924;51.398;7.088;2023-11-21T03:31:52;20.27;;;10.60;;
11735;SDS011;5924;51.398;7.088;2023-11-21T03:34:24;28.23;;;11.87;;
11735;SDS011;5924;51.398;7.088;2023-11-21T03:36:51;24.67;;;11.50;;
11735;SDS011;5924;51.398;7.088;2023-11-21T03:39:19;27.93;;;11.60;;
11735;SDS011;5924;51.398;7.088;2023-11-21T03:41:45;27.67;;;11.93;;
11735;SDS011;5924;51.398;7.088;2023-11-21T03:44:11;28.30;;;11.40;;
11735;SDS011;5924;51.398;7.088;2023-11-21T03:46:37;21.20;;;10.90;;
11735;SDS011;5924;51.398;7.088;2023-11-21T03:49:03;19.63;;;10.27;;
11735;SDS011;5924;51.398;7.088;2023-11-21T03:51:29;19.10;;;10.30;;
11735;SDS011;5924;51.398;7.088;2023-11-21T03:53:54;20.10;;;10.20;;
11735;SDS011;5924;51.398;7.088;2023-11-21T03:56:20;18.60;;;9.47;;
11735;SDS011;5924;51.398;7.088;2023-11-21T03:58:49;24.23;;;11.07;;
11735;SDS011;5924;51.398;7.088;2023-11-21T04:01:21;14.00;;;9.50;;
11735;SDS011;5924;51.398;7.088;2023-11-21T04:03:48;24.37;;;12.30;;
11735;SDS011;5924;51.398;7.088;2023-11-21T04:06:14;18.33;;;10.13;;
11735;SDS011;5924;51.398;7.088;2023-11-21T04:08:40;18.30;;;9.40;;
11735;SDS011;5924;51.398;7.088;2023-11-21T04:11:05;21.93;;;11.00;;
11735;SDS011;5924;51.398;7.088;2023-11-21T04:13:31;23.03;;;11.87;;
11735;SDS011;5924;51.398;7.088;2023-11-21T04:15:56;32.73;;;12.43;;
11735;SDS011;5924;51.398;7.088;2023-11-21T04:18:22;20.13;;;10.77;;
11735;SDS011;5924;51.398;7.088;2023-11-21T04:20:50;39.53;;;12.63;;
11735;SDS011;5924;51.398;7.088;2023-11-21T04:23:16;28.07;;;12.83;;
11735;SDS011;5924;51.398;7.088;2023-11-21T04:25:42;23.53;;;12.97;;
11735;SDS011;5924;51.398;7.088;2023-11-21T04:28:08;30.57;;;13.10;;
11735;SDS011;5924;51.398;7.088;2023-11-21T04:30:33;34.93;;;14.03;;
11735;SDS011;5924;51.398;7.088;2023-11-21T04:32:59;27.43;;;13.70;;
11735;SDS011;5924;51.398;7.088;2023-11-21T04:35:25;33.87;;;13.33;;
11735;SDS011;5924;51.398;7.088;2023-11-21T04:37:50;37.40;;;12.87;;
11735;SDS011;5924;51.398;7.088;2023-11-21T04:40:16;20.37;;;11.30;;
11735;SDS011;5924;51.398;7.088;2023-11-21T04:42:42;28.60;;;12.13;;
11735;SDS011;5924;51.398;7.088;2023-11-21T04:45:08;24.10;;;11.17;;
11735;SDS011;5924;51.398;7.088;2023-11-21T04:47:34;24.00;;;12.33;;
11735;SDS011;5924;51.398;7.088;2023-11-21T04:50:01;34.93;;;13.73;;
11735;SDS011;5924;51.398;7.088;2023-11-21T04:52:28;33.13;;;12.63;;
11735;SDS011;5924;51.398;7.088;2023-11-21T04:54:53;27.33;;;11.57;;
11735;SDS011;5924;51.398;7.088;2023-11-21T04:57:20;34.60;;;11.87;;
11735;SDS011;5924;51.398;7.088;2023-11-21T04:59:46;41.43;;;14.57;;
11735;SDS011;5924;51.398;7.088;2023-11-21T05:02:13;22.90;;;11.07;;
11735;SDS011;5924;51.398;7.088;2023-11-21T05:04:39;27.67;;;13.47;;
11735;SDS011;5924;51.398;7.088;2023-11-21T05:07:04;19.10;;;10.60;;
11735;SDS011;5924;51.398;7.088;2023-11-21T05:09:30;23.13;;;11.20;;
11735;SDS011;5924;51.398;7.088;2023-11-21T05:11:57;29.57;;;12.40;;
11735;SDS011;5924;51.398;7.088;2023-11-21T05:14:23;29.30;;;11.00;;
11735;SDS011;5924;51.398;7.088;2023-11-21T05:16:48;38.30;;;12.80;;
11735;SDS011;5924;51.398;7.088;2023-11-21T05:19:16;24.57;;;10.70;;
11735;SDS011;5924;51.398;7.088;2023-11-21T05:21:41;26.17;;;11.30;;
11735;SDS011;5924;51.398;7.088;2023-11-21T05:24:07;24.53;;;11.90;;
11735;SDS011;5924;51.398;7.088;2023-11-21T05:26:33;24.93;;;12.30;;
11735;SDS011;5924;51.398;7.088;2023-11-21T05:28:58;23.17;;;10.80;;
11735;SDS011;5924;51.398;7.088;2023-11-21T05:31:24;21.80;;;11.10;;
11735;SDS011;5924;51.398;7.088;2023-11-21T05:33:50;32.17;;;12.23;;
11735;SDS011;5924;51.398;7.088;2023-11-21T05:36:15;24.17;;;12.17;;
11735;SDS011;5924;51.398;7.088;2023-11-21T05:38:41;15.03;;;10.17;;
11735;SDS011;5924;51.398;7.088;2023-11-21T05:41:07;28.07;;;11.67;;
11735;SDS011;5924;51.398;7.088;2023-11-21T05:43:36;26.67;;;12.90;;
11735;SDS011;5924;51.398;7.088;2023-11-21T05:46:01;27.47;;;13.03;;
11735;SDS011;5924;51.398;7.088;2023-11-21T05:48:27;21.03;;;10.00;;
11735;SDS011;5924;51.398;7.088;2023-11-21T05:50:52;21.90;;;11.00;;
11735;SDS011;5924;51.398;7.088;2023-11-21T05:53:18;13.00;;;8.73;;
11735;SDS011;5924;51.398;7.088;2023-11-21T05:55:44;11.93;;;8.10;;
11735;SDS011;5924;51.398;7.088;2023-11-21T05:58:09;21.83;;;11.70;;
11735;SDS011;5924;51.398;7.088;2023-11-21T06:00:35;17.00;;;10.40;;
11735;SDS011;5924;51.398;7.088;2023-11-21T06:03:01;22.57;;;12.40;;
11735;SDS011;5924;51.398;7.088;2023-11-21T06:05:28;30.27;;;13.77;;
11735;SDS011;5924;51.398;7.088;2023-11-21T06:07:54;20.93;;;10.20;;
11735;SDS011;5924;51.398;7.088;2023-11-21T06:10:23;39.33;;;14.60;;
11735;SDS011;5924;51.398;7.088;2023-11-21T06:12:49;26.47;;;12.77;;
11735;SDS011;5924;51.398;7.088;2023-11-21T06:15:14;31.63;;;14.20;;
11735;SDS011;5924;51.398;7.088;2023-11-21T06:17:41;25.27;;;14.37;;
11735;SDS011;5924;51.398;7.088;2023-11-21T06:20:10;42.63;;;17.70;;
11735;SDS011;5924;51.398;7.088;2023-11-21T06:22:39;38.77;;;18.03;;
11735;SDS011;5924;51.398;7.088;2023-11-21T06:25:09;53.23;;;17.80;;
11735;SDS011;5924;51.398;7.088;2023-11-21T06:27:37;36.07;;;16.40;;
11735;SDS011;5924;51.398;7.088;2023-11-21T06:30:04;26.73;;;13.90;;
11735;SDS011;5924;51.398;7.088;2023-11-21T06:32:31;40.20;;;15.93;;
11735;SDS011;5924;51.398;7.088;2023-11-21T06:34:57;29.70;;;13.03;;
11735;SDS011;5924;51.398;7.088;2023-11-21T06:37:29;36.83;;;15.10;;
11735;SDS011;5924;51.398;7.088;2023-11-21T06:39:55;28.93;;;12.83;;
11735;SDS011;5924;51.398;7.088;2023-11-21T06:42:23;34.03;;;12.40;;
11735;SDS011;5924;51.398;7.088;2023-11-21T06:44:49;35.10;;;14.80;;
11735;SDS011;5924;51.398;7.088;2023-11-21T06:47:19;33.57;;;13.10;;
11735;SDS011;5924;51.398;7.088;2023-11-21T06:49:50;27.03;;;11.13;;
11735;SDS011;5924;51.398;7.088;2023-11-21T06:52:16;28.73;;;13.03;;
11735;SDS011;5924;51.398;7.088;2023-11-21T06:54:43;28.10;;;13.10;;
11735;SDS011;5924;51.398;7.088;2023-11-21T06:57:09;23.53;;;11.70;;
11735;SDS011;5924;51.398;7.088;2023-11-21T06:59:34;30.53;;;13.33;;
11735;SDS011;5924;51.398;7.088;2023-11-21T07:02:00;32.53;;;13.87;;
11735;SDS011;5924;51.398;7.088;2023-11-21T07:04:26;37.53;;;14.80;;
11735;SDS011;5924;51.398;7.088;2023-11-21T07:06:53;32.37;;;14.00;;
11735;SDS011;5924;51.398;7.088;2023-11-21T07:09:19;35.13;;;15.23;;
11735;SDS011;5924;51.398;7.088;2023-11-21T07:11:48;44.97;;;15.87;;
11735;SDS011;5924;51.398;7.088;2023-11-21T07:14:14;33.73;;;14.67;;
11735;SDS011;5924;51.398;7.088;2023-11-21T07:16:42;24.90;;;12.00;;
11735;SDS011;5924;51.398;7.088;2023-11-21T07:19:07;40.57;;;15.10;;
11735;SDS011;5924;51.398;7.088;2023-11-21T07:21:33;27.70;;;12.13;;
11735;SDS011;5924;51.398;7.088;2023-11-21T07:24:01;30.83;;;12.50;;
11735;SDS011;5924;51.398;7.088;2023-11-21T07:26:27;29.17;;;12.43;;
11735;SDS011;5924;51.398;7.088;2023-11-21T07:28:53;24.83;;;11.10;;
11735;SDS011;5924;51.398;7.088;2023-11-21T07:31:19;23.27;;;12.10;;
11735;SDS011;5924;51.398;7.088;2023-11-21T07:33:45;23.80;;;11.90;;
11735;SDS011;5924;51.398;7.088;2023-11-21T07:36:14;38.03;;;13.80;;
11735;SDS011;5924;51.398;7.088;2023-11-21T07:38:41;22.10;;;11.77;;
11735;SDS011;5924;51.398;7.088;2023-11-21T07:41:07;23.53;;;12.80;;
11735;SDS011;5924;51.398;7.088;2023-11-21T07:43:34;28.03;;;12.10;;
11735;SDS011;5924;51.398;7.088;2023-11-21T07:46:03;25.13;;;13.03;;
11735;SDS011;5924;51.398;7.088;2023-11-21T07:48:30;23.17;;;11.30;;
11735;SDS011;5924;51.398;7.088;2023-11-21T07:50:56;26.47;;;12.77;;
11735;SDS011;5924;51.398;7.088;2023-11-21T07:53:23;38.40;;;14.27;;
11735;SDS011;5924;51.398;7.088;2023-11-21T07:55:50;28.53;;;13.30;;
11735;SDS011;5924;51.398;7.088;2023-11-21T07:58:17;36.53;;;13.87;;
11735;SDS011;5924;51.398;7.088;2023-11-21T08:00:43;46.63;;;15.43;;
11735;SDS011;5924;51.398;7.088;2023-11-21T08:03:09;43.40;;;14.97;;
11735;SDS011;5924;51.398;7.088;2023-11-21T08:05:36;34.50;;;14.93;;
11735;SDS011;5924;51.398;7.088;2023-11-21T08:08:02;30.77;;;13.87;;
11735;SDS011;5924;51.398;7.088;2023-11-21T08:10:27;39.90;;;16.17;;
11735;SDS011;5924;51.398;7.088;2023-11-21T08:12:53;50.80;;;16.83;;
11735;SDS011;5924;51.398;7.088;2023-11-21T08:15:19;34.53;;;16.30;;
11735;SDS011;5924;51.398;7.088;2023-11-21T08:17:44;97.50;;;23.87;;
11735;SDS011;5924;51.398;7.088;2023-11-21T08:20:11;97.80;;;26.33;;
11735;SDS011;5924;51.398;7.088;2023-11-21T08:22:37;100.30;;;25.60;;
11735;SDS011;5924;51.398;7.088;2023-11-21T08:25:06;107.30;;;25.57;;
11735;SDS011;5924;51.398;7.088;2023-11-21T08:27:33;100.97;;;25.87;;
11735;SDS011;5924;51.398;7.088;2023-11-21T08:29:59;116.13;;;26.10;;
11735;SDS011;5924;51.398;7.088;2023-11-21T08:32:28;124.47;;;27.77;;
11735;SDS011;5924;51.398;7.088;2023-11-21T08:34:57;107.43;;;26.30;;
11735;SDS011;5924;51.398;7.088;2023-11-21T08:37:23;111.80;;;24.00;;
11735;SDS011;5924;51.398;7.088;2023-11-21T08:39:49;135.63;;;30.93;;
11735;SDS011;5924;51.398;7.088;2023-11-21T08:42:14;151.43;;;31.73;;
11735;SDS011;5924;51.398;7.088;2023-11-21T08:44:40;121.43;;;28.30;;
11735;SDS011;5924;51.398;7.088;2023-11-21T08:47:06;128.63;;;27.53;;
11735;SDS011;5924;51.398;7.088;2023-11-21T08:49:32;136.57;;;26.90;;
11735;SDS011;5924;51.398;7.088;2023-11-21T08:51:58;138.33;;;29.47;;
11735;SDS011;5924;51.398;7.088;2023-11-21T08:54:26;127.67;;;28.07;;
11735;SDS011;5924;51.398;7.088;2023-11-21T08:56:52;133.53;;;30.30;;
11735;SDS011;5924;51.398;7.088;2023-11-21T08:59:19;167.07;;;28.03;;
11735;SDS011;5924;51.398;7.088;2023-11-21T09:01:46;128.37;;;27.70;;
11735;SDS011;5924;51.398;7.088;2023-11-21T09:04:12;125.17;;;30.40;;
11735;SDS011;5924;51.398;7.088;2023-11-21T09:06:38;97.77;;;27.00;;
11735;SDS011;5924;51.398;7.088;2023-11-21T09:09:04;82.87;;;24.10;;
11735;SDS011;5924;51.398;7.088;2023-11-21T09:11:31;146.17;;;30.70;;
11735;SDS011;5924;51.398;7.088;2023-11-21T09:13:59;144.37;;;30.70;;
11735;SDS011;5924;51.398;7.088;2023-11-21T09:16:25;117.50;;;29.60;;
11735;SDS011;5924;51.398;7.088;2023-11-21T09:18:51;129.67;;;31.90;;
11735;SDS011;5924;51.398;7.088;2023-11-21T09:21:17;144.97;;;31.07;;
11735;SDS011;5924;51.398;7.088;2023-11-21T09:23:44;124.27;;;30.60;;
11735;SDS011;5924;51.398;7.088;2023-11-21T09:26:09;137.73;;;31.50;;
11735;SDS011;5924;51.398;7.088;2023-11-21T09:28:35;131.17;;;29.73;;
11735;SDS011;5924;51.398;7.088;2023-11-21T09:31:06;97.13;;;23.90;;
11735;SDS011;5924;51.398;7.088;2023-11-21T09:33:34;151.20;;;34.17;;
11735;SDS011;5924;51.398;7.088;2023-11-21T09:35:59;143.27;;;30.80;;
11735;SDS011;5924;51.398;7.088;2023-11-21T09:38:26;148.27;;;32.37;;
11735;SDS011;5924;51.398;7.088;2023-11-21T09:40:53;135.70;;;34.57;;
11735;SDS011;5924;51.398;7.088;2023-11-21T09:43:20;136.10;;;31.27;;
11735;SDS011;5924;51.398;7.088;2023-11-21T09:45:48;114.87;;;27.67;;
11735;SDS011;5924;51.398;7.088;2023-11-21T09:48:29;133.43;;;32.67;;
11735;SDS011;5924;51.398;7.088;2023-11-21T09:50:57;134.17;;;34.87;;
11735;SDS011;5924;51.398;7.088;2023-11-21T09:53:24;150.37;;;32.20;;
11735;SDS011;5924;51.398;7.088;2023-11-21T09:55:54;135.83;;;34.23;;
11735;SDS011;5924;51.398;7.088;2023-11-21T09:58:21;100.80;;;26.97;;
11735;SDS011;5924;51.398;7.088;2023-11-21T10:00:51;96.13;;;25.67;;
11735;SDS011;5924;51.398;7.088;2023-11-21T10:03:18;116.70;;;28.83;;
11735;SDS011;5924;51.398;7.088;2023-11-21T10:05:44;89.30;;;26.83;;
11735;SDS011;5924;51.398;7.088;2023-11-21T10:08:11;99.67;;;27.90;;
11735;SDS011;5924;51.398;7.088;2023-11-21T10:10:38;162.07;;;40.00;;
11735;SDS011;5924;51.398;7.088;2023-11-21T10:13:15;118.07;;;32.77;;
11735;SDS011;5924;51.398;7.088;2023-11-21T10:15:44;100.50;;;29.70;;
11735;SDS011;5924;51.398;7.088;2023-11-21T10:18:15;175.33;;;39.60;;
11735;SDS011;5924;51.398;7.088;2023-11-21T10:20:42;105.53;;;29.67;;
11735;SDS011;5924;51.398;7.088;2023-11-21T10:23:08;122.60;;;30.37;;
11735;SDS011;5924;51.398;7.088;2023-11-21T10:25:36;102.40;;;28.67;;
11735;SDS011;5924;51.398;7.088;2023-11-21T10:28:03;98.50;;;29.10;;
11735;SDS011;5924;51.398;7.088;2023-11-21T10:30:32;118.90;;;32.70;;
11735;SDS011;5924;51.398;7.088;2023-11-21T10:33:02;139.57;;;37.07;;
11735;SDS011;5924;51.398;7.088;2023-11-21T10:38:26;138.10;;;32.97;;
11735;SDS011;5924;51.398;7.088;2023-11-21T10:40:54;122.50;;;30.43;;
11735;SDS011;5924;51.398;7.088;2023-11-21T10:43:20;133.80;;;31.50;;
11735;SDS011;5924;51.398;7.088;2023-11-21T10:45:50;111.40;;;28.30;;
11735;SDS011;5924;51.398;7.088;2023-11-21T10:48:16;114.67;;;32.10;;
11735;SDS011;5924;51.398;7.088;2023-11-21T10:50:42;106.03;;;30.33;;
11735;SDS011;5924;51.398;7.088;2023-11-21T10:53:09;108.07;;;32.60;;
11735;SDS011;5924;51.398;7.088;2023-11-21T10:55:36;95.87;;;30.40;;
11735;SDS011;5924;51.398;7.088;2023-11-21T10:58:03;85.03;;;26.77;;
11735;SDS011;5924;51.398;7.088;2023-11-21T11:00:30;107.27;;;28.53;;
11735;SDS011;5924;51.398;7.088;2023-11-21T11:02:56;83.23;;;25.77;;
11735;SDS011;5924;51.398;7.088;2023-11-21T11:05:24;87.73;;;27.23;;
11735;SDS011;5924;51.398;7.088;2023-11-21T11:08:04;113.13;;;30.70;;
11735;SDS011;5924;51.398;7.088;2023-11-21T11:10:31;100.97;;;27.20;;
11735;SDS011;5924;51.398;7.088;2023-11-21T11:12:57;99.33;;;28.70;;
11735;SDS011;5924;51.398;7.088;2023-11-21T11:15:24;90.37;;;27.97;;
11735;SDS011;5924;51.398;7.088;2023-11-21T11:17:51;73.00;;;24.30;;
11735;SDS011;5924;51.398;7.088;2023-11-21T11:20:17;86.00;;;25.40;;
11735;SDS011;5924;51.398;7.088;2023-11-21T11:22:50;84.77;;;26.20;;
11735;SDS011;5924;51.398;7.088;2023-11-21T11:28:37;68.20;;;22.73;;
11735;SDS011;5924;51.398;7.088;2023-11-21T11:31:21;84.40;;;25.20;;
11735;SDS011;5924;51.398;7.088;2023-11-21T11:37:01;69.07;;;22.50;;
11735;SDS011;5924;51.398;7.088;2023-11-21T11:42:07;85.43;;;25.90;;
11735;SDS011;5924;51.398;7.088;2023-11-21T11:52:50;97.90;;;27.57;;
11735;SDS011;5924;51.398;7.088;2023-11-21T11:55:18;96.53;;;26.87;;
11735;SDS011;5924;51.398;7.088;2023-11-21T11:57:46;88.17;;;27.73;;
11735;SDS011;5924;51.398;7.088;2023-11-21T12:00:36;77.10;;;25.57;;
11735;SDS011;5924;51.398;7.088;2023-11-21T12:03:07;84.07;;;27.73;;
11735;SDS011;5924;51.398;7.088;2023-11-21T12:05:35;86.00;;;26.97;;
11735;SDS011;5924;51.398;7.088;2023-11-21T12:08:03;77.03;;;24.77;;
11735;SDS011;5924;51.398;7.088;2023-11-21T12:10:31;82.40;;;26.83;;
11735;SDS011;5924;51.398;7.088;2023-11-21T12:12:59;85.63;;;25.77;;
11735;SDS011;5924;51.398;7.088;2023-11-21T12:15:26;74.20;;;23.13;;
11735;SDS011;5924;51.398;7.088;2023-11-21T12:17:55;84.93;;;24.03;;
11735;SDS011;5924;51.398;7.088;2023-11-21T12:20:22;99.97;;;27.10;;
11735;SDS011;5924;51.398;7.088;2023-11-21T12:22:52;102.87;;;28.20;;
11735;SDS011;5924;51.398;7.088;2023-11-21T12:25:22;87.90;;;26.97;;
11735;SDS011;5924;51.398;7.088;2023-11-21T12:27:57;77.57;;;27.00;;
11735;SDS011;5924;51.398;7.088;2023-11-21T12:30:27;89.83;;;26.20;;
11735;SDS011;5924;51.398;7.088;2023-11-21T12:32:56;96.93;;;29.13;;
11735;SDS011;5924;51.398;7.088;2023-11-21T12:35:25;93.43;;;31.17;;
11735;SDS011;5924;51.398;7.088;2023-11-21T12:37:56;91.43;;;30.80;;
11735;SDS011;5924;51.398;7.088;2023-11-21T12:40:25;91.83;;;32.87;;
11735;SDS011;5924;51.398;7.088;2023-11-21T12:42:54;118.73;;;36.27;;
11735;SDS011;5924;51.398;7.088;2023-11-21T12:45:27;103.70;;;36.10;;
11735;SDS011;5924;51.398;7.088;2023-11-21T12:47:55;93.20;;;34.33;;
11735;SDS011;5924;51.398;7.088;2023-11-21T12:50:25;101.37;;;33.67;;
11735;SDS011;5924;51.398;7.088;2023-11-21T12:52:54;92.00;;;32.83;;
11735;SDS011;5924;51.398;7.088;2023-11-21T12:55:23;104.23;;;35.17;;
11735;SDS011;5924;51.398;7.088;2023-11-21T12:57:54;105.93;;;38.00;;
11735;SDS011;5924;51.398;7.088;2023-11-21T13:00:27;104.73;;;36.47;;
11735;SDS011;5924;51.398;7.088;2023-11-21T13:02:57;90.73;;;34.80;;
11735;SDS011;5924;51.398;7.088;2023-11-21T13:05:24;89.50;;;35.33;;
11735;SDS011;5924;51.398;7.088;2023-11-21T13:07:51;89.13;;;33.80;;
11735;SDS011;5924;51.398;7.088;2023-11-21T13:10:19;67.47;;;30.07;;
11735;SDS011;5924;51.398;7.088;2023-11-21T13:12:50;59.37;;;27.77;;
11735;SDS011;5924;51.398;7.088;2023-11-21T13:15:17;61.90;;;24.53;;
11735;SDS011;5924;51.398;7.088;2023-11-21T13:17:43;58.33;;;23.53;;
11735;SDS011;5924;51.398;7.088;2023-11-21T13:20:13;53.90;;;23.20;;
11735;SDS011;5924;51.398;7.088;2023-11-21T13:22:48;50.90;;;22.30;;
11735;SDS011;5924;51.398;7.088;2023-11-21T13:25:22;42.10;;;20.60;;
11735;SDS011;5924;51.398;7.088;2023-11-21T13:27:49;54.43;;;22.20;;
11735;SDS011;5924;51.398;7.088;2023-11-21T13:30:15;42.07;;;19.57;;
11735;SDS011;5924;51.398;7.088;2023-11-21T13:32:43;45.30;;;20.30;;
11735;SDS011;5924;51.398;7.088;2023-11-21T13:35:11;43.00;;;20.70;;
11735;SDS011;5924;51.398;7.088;2023-11-21T13:37:46;36.43;;;19.97;;
11735;SDS011;5924;51.398;7.088;2023-11-21T13:40:14;37.10;;;18.77;;
11735;SDS011;5924;51.398;7.088;2023-11-21T13:42:45;39.27;;;18.30;;
11735;SDS011;5924;51.398;7.088;2023-11-21T13:45:11;35.93;;;17.63;;
11735;SDS011;5924;51.398;7.088;2023-11-21T13:47:37;35.57;;;18.87;;
11735;SDS011;5924;51.398;7.088;2023-11-21T13:50:05;32.47;;;18.00;;
11735;SDS011;5924;51.398;7.088;2023-11-21T13:52:39;35.23;;;18.30;;
11735;SDS011;5924;51.398;7.088;2023-11-21T13:55:04;29.90;;;16.10;;
11735;SDS011;5924;51.398;7.088;2023-11-21T13:57:36;32.83;;;16.47;;
11735;SDS011;5924;51.398;7.088;2023-11-21T14:00:03;26.60;;;15.37;;
11735;SDS011;5924;51.398;7.088;2023-11-21T14:02:35;27.80;;;14.70;;
11735;SDS011;5924;51.398;7.088;2023-11-21T14:05:07;30.80;;;16.40;;
11735;SDS011;5924;51.398;7.088;2023-11-21T14:07:34;27.67;;;15.27;;
11735;SDS011;5924;51.398;7.088;2023-11-21T14:10:04;29.23;;;15.60;;
11735;SDS011;5924;51.398;7.088;2023-11-21T14:12:33;31.90;;;17.33;;
11735;SDS011;5924;51.398;7.088;2023-11-21T14:15:01;24.10;;;15.10;;
11735;SDS011;5924;51.398;7.088;2023-11-21T14:17:30;29.60;;;15.60;;
11735;SDS011;5924;51.398;7.088;2023-11-21T14:19:55;31.40;;;14.40;;
11735;SDS011;5924;51.398;7.088;2023-11-21T14:22:21;27.03;;;15.13;;
11735;SDS011;5924;51.398;7.088;2023-11-21T14:24:47;26.53;;;15.37;;
11735;SDS011;5924;51.398;7.088;2023-11-21T14:27:15;26.33;;;14.70;;
11735;SDS011;5924;51.398;7.088;2023-11-21T14:29:41;25.60;;;14.80;;
11735;SDS011;5924;51.398;7.088;2023-11-21T14:32:09;31.90;;;16.80;;
11735;SDS011;5924;51.398;7.088;2023-11-21T14:34:35;37.97;;;17.90;;
11735;SDS011;5924;51.398;7.088;2023-11-21T14:37:01;31.87;;;16.23;;
11735;SDS011;5924;51.398;7.088;2023-11-21T14:39:28;27.33;;;14.50;;
11735;SDS011;5924;51.398;7.088;2023-11-21T14:41:54;28.80;;;14.43;;
11735;SDS011;5924;51.398;7.088;2023-11-21T14:44:25;26.77;;;14.60;;
11735;SDS011;5924;51.398;7.088;2023-11-21T14:46:57;31.67;;;14.27;;
11735;SDS011;5924;51.398;7.088;2023-11-21T14:49:24;30.80;;;15.17;;
11735;SDS011;5924;51.398;7.088;2023-11-21T14:51:52;27.60;;;13.23;;
11735;SDS011;5924;51.398;7.088;2023-11-21T14:54:34;26.03;;;13.63;;